sensor_id;sensor_type;location;lat;lon;timestamp;pressure;altitude;pressure_sealevel;temperature;humidity
8585;BME280;7180;52.742;11.420;2022-08-18T04:56:44;100690.38;;;18.43;100.00
8585;BME280;7180;52.742;11.420;2022-08-18T04:59:11;100700.34;;;18.60;100.00
8585;BME280;7180;52.742;11.420;2022-08-18T05:01:42;100702.22;;;18.79;100.00
8585;BME280;7180;52.742;11.420;2022-08-18T05:04:09;100712.59;;;19.29;100.00
8585;BME280;7180;52.742;11.420;2022-08-18T05:06:37;100705.09;;;19.71;99.14
8585;BME280;7180;52.742;11.420;2022-08-18T05:09:06;100685.13;;;20.12;96.22
8585;BME280;7180;52.742;11.420;2022-08-18T05:11:33;100673.38;;;20.32;94.41
8585;BME280;7180;52.742;11.420;2022-08-18T05:14:00;100667.78;;;20.70;92.34
8585;BME280;7180;52.742;11.420;2022-08-18T05:16:26;100677.00;;;21.28;89.77
8585;BME280;7180;52.742;11.420;2022-08-18T05:18:52;100658.84;;;21.65;86.60
8585;BME280;7180;52.742;11.420;2022-08-18T05:21:19;100628.31;;;21.50;86.31
8585;BME280;7180;52.742;11.420;2022-08-18T05:23:47;100633.94;;;21.39;87.32
8585;BME280;7180;52.742;11.420;2022-08-18T05:26:14;100613.63;;;21.03;88.24
8585;BME280;7180;52.742;11.420;2022-08-18T05:28:41;100619.53;;;20.72;90.42
8585;BME280;7180;52.742;11.420;2022-08-18T05:31:12;100610.84;;;20.34;92.08
8585;BME280;7180;52.742;11.420;2022-08-18T05:33:38;100646.72;;;20.22;93.79
8585;BME280;7180;52.742;11.420;2022-08-18T05:36:10;100648.06;;;20.09;95.12
8585;BME280;7180;52.742;11.420;2022-08-18T05:41:30;100702.94;;;21.10;93.03
8585;BME280;7180;52.742;11.420;2022-08-18T05:43:58;100696.13;;;21.59;90.72
8585;BME280;7180;52.742;11.420;2022-08-18T05:46:41;100679.44;;;21.91;89.15
8585;BME280;7180;52.742;11.420;2022-08-18T05:49:07;100657.00;;;22.25;86.75
8585;BME280;7180;52.742;11.420;2022-08-18T05:51:39;100647.53;;;22.05;86.70
8585;BME280;7180;52.742;11.420;2022-08-18T05:54:06;100664.09;;;22.50;87.01
8585;BME280;7180;52.742;11.420;2022-08-18T05:56:53;100663.19;;;23.32;83.42
8585;BME280;7180;52.742;11.420;2022-08-18T05:59:22;100670.56;;;23.46;82.97
8585;BME280;7180;52.742;11.420;2022-08-18T06:01:54;100669.78;;;24.00;80.09
8585;BME280;7180;52.742;11.420;2022-08-18T06:04:46;100667.78;;;25.09;76.88
8585;BME280;7180;52.742;11.420;2022-08-18T06:07:18;100657.06;;;25.60;74.56
8585;BME280;7180;52.742;11.420;2022-08-18T06:09:52;100586.47;;;24.08;78.01
8585;BME280;7180;52.742;11.420;2022-08-18T06:12:33;100604.44;;;23.61;80.86
8585;BME280;7180;52.742;11.420;2022-08-18T06:15:09;100593.94;;;23.35;81.55
8585;BME280;7180;52.742;11.420;2022-08-18T06:20:14;100600.88;;;22.08;87.71
8585;BME280;7180;52.742;11.420;2022-08-18T06:22:59;100640.06;;;22.17;88.44
8585;BME280;7180;52.742;11.420;2022-08-18T06:28:07;100673.56;;;22.29;89.89
8585;BME280;7180;52.742;11.420;2022-08-18T06:30:50;100697.38;;;22.98;88.02
8585;BME280;7180;52.742;11.420;2022-08-18T06:33:44;100677.44;;;23.40;85.01
8585;BME280;7180;52.742;11.420;2022-08-18T06:36:24;100678.75;;;23.60;85.27
8585;BME280;7180;52.742;11.420;2022-08-18T06:41:37;100690.81;;;24.89;79.86
8585;BME280;7180;52.742;11.420;2022-08-18T06:44:35;100699.41;;;25.67;77.60
8585;BME280;7180;52.742;11.420;2022-08-18T06:47:11;100663.59;;;26.10;74.78
8585;BME280;7180;52.742;11.420;2022-08-18T06:49:46;100664.03;;;25.99;75.48
8585;BME280;7180;52.742;11.420;2022-08-18T06:54:46;100677.47;;;26.42;74.50
8585;BME280;7180;52.742;11.420;2022-08-18T06:57:28;100633.47;;;26.21;73.60
8585;BME280;7180;52.742;11.420;2022-08-18T06:59:57;100614.16;;;26.03;73.67
8585;BME280;7180;52.742;11.420;2022-08-18T07:02:35;100632.56;;;25.85;75.17
8585;BME280;7180;52.742;11.420;2022-08-18T07:07:36;100681.09;;;27.06;71.01
8585;BME280;7180;52.742;11.420;2022-08-18T07:10:27;100630.72;;;26.92;71.52
8585;BME280;7180;52.742;11.420;2022-08-18T07:12:50;100678.59;;;27.26;71.23
8585;BME280;7180;52.742;11.420;2022-08-18T07:15:22;100673.84;;;27.90;69.05
8585;BME280;7180;52.742;11.420;2022-08-18T07:17:48;100659.03;;;27.79;70.04
8585;BME280;7180;52.742;11.420;2022-08-18T07:20:22;100606.72;;;27.25;69.99
8585;BME280;7180;52.742;11.420;2022-08-18T07:22:55;100631.59;;;26.72;72.74
8585;BME280;7180;52.742;11.420;2022-08-18T07:25:42;100622.91;;;26.40;74.09
8585;BME280;7180;52.742;11.420;2022-08-18T07:28:42;100625.59;;;26.05;76.06
8585;BME280;7180;52.742;11.420;2022-08-18T07:34:08;100647.00;;;26.27;75.07
8585;BME280;7180;52.742;11.420;2022-08-18T07:36:49;100679.31;;;26.56;74.72
8585;BME280;7180;52.742;11.420;2022-08-18T07:39:30;100668.72;;;26.55;73.87
8585;BME280;7180;52.742;11.420;2022-08-18T07:42:21;100651.78;;;26.61;72.30
8585;BME280;7180;52.742;11.420;2022-08-18T07:44:53;100619.34;;;25.90;73.58
8585;BME280;7180;52.742;11.420;2022-08-18T07:47:44;100636.25;;;26.13;73.04
8585;BME280;7180;52.742;11.420;2022-08-18T07:50:13;100653.97;;;26.36;73.74
8585;BME280;7180;52.742;11.420;2022-08-18T07:55:32;100641.00;;;26.11;73.83
8585;BME280;7180;52.742;11.420;2022-08-18T08:01:17;100623.69;;;25.32;75.06
8585;BME280;7180;52.742;11.420;2022-08-18T08:04:10;100644.28;;;25.25;75.51
8585;BME280;7180;52.742;11.420;2022-08-18T08:06:43;100628.28;;;25.09;75.80
8585;BME280;7180;52.742;11.420;2022-08-18T08:09:28;100649.94;;;25.30;75.66
8585;BME280;7180;52.742;11.420;2022-08-18T08:12:02;100678.44;;;25.77;74.96
8585;BME280;7180;52.742;11.420;2022-08-18T08:14:50;100688.00;;;25.79;74.25
8585;BME280;7180;52.742;11.420;2022-08-18T08:17:39;100662.53;;;25.96;72.69
8585;BME280;7180;52.742;11.420;2022-08-18T08:20:26;100632.75;;;25.98;72.02
8585;BME280;7180;52.742;11.420;2022-08-18T08:23:15;100655.94;;;25.99;72.91
8585;BME280;7180;52.742;11.420;2022-08-18T08:28:47;100634.22;;;26.15;72.22
8585;BME280;7180;52.742;11.420;2022-08-18T08:34:19;100651.63;;;26.48;71.83
8585;BME280;7180;52.742;11.420;2022-08-18T08:36:47;100618.22;;;26.28;71.73
8585;BME280;7180;52.742;11.420;2022-08-18T08:44:50;100641.88;;;26.83;70.96
8585;BME280;7180;52.742;11.420;2022-08-18T08:47:24;100614.38;;;26.58;70.71
8585;BME280;7180;52.742;11.420;2022-08-18T08:49:57;100607.53;;;26.55;70.20
8585;BME280;7180;52.742;11.420;2022-08-18T08:52:49;100607.34;;;26.57;70.71
8585;BME280;7180;52.742;11.420;2022-08-18T08:55:34;100630.22;;;26.82;69.52
8585;BME280;7180;52.742;11.420;2022-08-18T09:00:32;100573.38;;;26.84;65.70
8585;BME280;7180;52.742;11.420;2022-08-18T09:03:31;100580.19;;;26.80;67.38
8585;BME280;7180;52.742;11.420;2022-08-18T09:09:07;100575.34;;;26.96;65.66
8585;BME280;7180;52.742;11.420;2022-08-18T09:17:22;100549.25;;;27.03;64.69
8585;BME280;7180;52.742;11.420;2022-08-18T09:22:52;100539.97;;;26.85;64.00
8585;BME280;7180;52.742;11.420;2022-08-18T09:28:38;100533.34;;;26.87;63.95
8585;BME280;7180;52.742;11.420;2022-08-18T09:33:48;100513.19;;;26.62;64.92
8585;BME280;7180;52.742;11.420;2022-08-18T09:39:30;100540.75;;;26.79;65.80
8585;BME280;7180;52.742;11.420;2022-08-18T09:42:27;100541.34;;;27.02;64.83
8585;BME280;7180;52.742;11.420;2022-08-18T09:44:59;100551.81;;;27.11;64.55
8585;BME280;7180;52.742;11.420;2022-08-18T10:00:35;100501.41;;;27.52;61.39
8585;BME280;7180;52.742;11.420;2022-08-18T10:03:10;100510.56;;;27.58;61.39
8585;BME280;7180;52.742;11.420;2022-08-18T10:05:37;100471.69;;;27.52;60.81
8585;BME280;7180;52.742;11.420;2022-08-18T10:10:41;100485.53;;;27.36;60.99
8585;BME280;7180;52.742;11.420;2022-08-18T10:13:25;100492.66;;;27.50;61.06
8585;BME280;7180;52.742;11.420;2022-08-18T10:19:27;100499.75;;;27.58;60.66
8585;BME280;7180;52.742;11.420;2022-08-18T10:24:51;100501.97;;;27.48;61.15
8585;BME280;7180;52.742;11.420;2022-08-18T10:27:49;100496.47;;;27.28;62.37
8585;BME280;7180;52.742;11.420;2022-08-18T10:33:00;100506.00;;;27.58;61.50
8585;BME280;7180;52.742;11.420;2022-08-18T10:38:11;100437.38;;;27.46;59.30
8585;BME280;7180;52.742;11.420;2022-08-18T10:40:39;100501.69;;;27.71;60.45
8585;BME280;7180;52.742;11.420;2022-08-18T10:43:13;100464.88;;;27.63;59.24
8585;BME280;7180;52.742;11.420;2022-08-18T10:45:47;100470.28;;;27.63;58.91
8585;BME280;7180;52.742;11.420;2022-08-18T10:48:20;100469.91;;;27.73;59.15
8585;BME280;7180;52.742;11.420;2022-08-18T10:53:59;100475.31;;;27.73;60.17
8585;BME280;7180;52.742;11.420;2022-08-18T10:56:32;100500.91;;;27.90;60.23
8585;BME280;7180;52.742;11.420;2022-08-18T11:04:25;100494.88;;;27.88;59.74
8585;BME280;7180;52.742;11.420;2022-08-18T11:07:00;100442.03;;;27.79;58.57
8585;BME280;7180;52.742;11.420;2022-08-18T11:09:28;100461.25;;;27.97;57.61
8585;BME280;7180;52.742;11.420;2022-08-18T11:11:57;100483.75;;;28.30;57.27
8585;BME280;7180;52.742;11.420;2022-08-18T11:19:50;100485.88;;;28.67;55.94
8585;BME280;7180;52.742;11.420;2022-08-18T11:22:25;100472.13;;;28.49;57.84
8585;BME280;7180;52.742;11.420;2022-08-18T11:24:50;100493.13;;;28.40;58.98
8585;BME280;7180;52.742;11.420;2022-08-18T11:27:34;100515.38;;;28.29;60.30
8585;BME280;7180;52.742;11.420;2022-08-18T11:30:02;100524.97;;;28.45;60.14
8585;BME280;7180;52.742;11.420;2022-08-18T11:32:36;100508.28;;;28.22;60.98
8585;BME280;7180;52.742;11.420;2022-08-18T11:35:28;100526.22;;;28.49;59.86
8585;BME280;7180;52.742;11.420;2022-08-18T11:37:57;100500.97;;;28.03;61.03
8585;BME280;7180;52.742;11.420;2022-08-18T11:43:04;100543.41;;;28.09;62.52
8585;BME280;7180;52.742;11.420;2022-08-18T11:45:55;100499.84;;;27.78;62.10
8585;BME280;7180;52.742;11.420;2022-08-18T11:56:04;100512.00;;;27.60;63.12
8585;BME280;7180;52.742;11.420;2022-08-18T11:58:43;100503.47;;;27.57;62.84
8585;BME280;7180;52.742;11.420;2022-08-18T12:01:26;100516.34;;;27.55;62.92
8585;BME280;7180;52.742;11.420;2022-08-18T12:03:52;100505.13;;;27.51;62.41
8585;BME280;7180;52.742;11.420;2022-08-18T12:06:23;100502.59;;;27.43;62.70
8585;BME280;7180;52.742;11.420;2022-08-18T12:14:56;100521.59;;;27.63;62.48
8585;BME280;7180;52.742;11.420;2022-08-18T12:17:22;100523.72;;;27.74;62.37
8585;BME280;7180;52.742;11.420;2022-08-18T12:19:48;100525.19;;;27.77;63.10
8585;BME280;7180;52.742;11.420;2022-08-18T12:22:16;100513.88;;;28.01;60.83
8585;BME280;7180;52.742;11.420;2022-08-18T12:24:42;100518.25;;;28.08;60.98
8585;BME280;7180;52.742;11.420;2022-08-18T12:27:09;100503.09;;;28.14;60.63
8585;BME280;7180;52.742;11.420;2022-08-18T12:29:36;100504.13;;;28.19;60.16
8585;BME280;7180;52.742;11.420;2022-08-18T12:32:01;100448.41;;;28.05;59.28
8585;BME280;7180;52.742;11.420;2022-08-18T12:34:26;100403.00;;;27.88;57.97
8585;BME280;7180;52.742;11.420;2022-08-18T12:36:54;100440.03;;;28.00;58.23
8585;BME280;7180;52.742;11.420;2022-08-18T12:39:20;100400.56;;;27.99;57.67
8585;BME280;7180;52.742;11.420;2022-08-18T12:41:46;100397.84;;;27.93;57.36
8585;BME280;7180;52.742;11.420;2022-08-18T12:44:11;100377.22;;;27.92;57.25
8585;BME280;7180;52.742;11.420;2022-08-18T12:46:36;100358.97;;;27.94;56.46
8585;BME280;7180;52.742;11.420;2022-08-18T12:49:03;100349.41;;;28.04;55.49
8585;BME280;7180;52.742;11.420;2022-08-18T12:51:29;100374.38;;;28.00;56.71
8585;BME280;7180;52.742;11.420;2022-08-18T12:53:54;100400.13;;;27.96;57.69
8585;BME280;7180;52.742;11.420;2022-08-18T12:56:23;100427.16;;;27.96;58.32
8585;BME280;7180;52.742;11.420;2022-08-18T12:58:49;100410.09;;;27.89;58.28
8585;BME280;7180;52.742;11.420;2022-08-18T13:01:16;100442.16;;;28.05;58.83
8585;BME280;7180;52.742;11.420;2022-08-18T13:03:42;100485.00;;;28.21;59.49
8585;BME280;7180;52.742;11.420;2022-08-18T13:06:09;100503.13;;;28.33;60.03
8585;BME280;7180;52.742;11.420;2022-08-18T13:08:36;100474.22;;;28.34;59.01
8585;BME280;7180;52.742;11.420;2022-08-18T13:11:01;100450.91;;;28.33;58.13
8585;BME280;7180;52.742;11.420;2022-08-18T13:13:27;100434.28;;;28.36;57.09
8585;BME280;7180;52.742;11.420;2022-08-18T13:15:53;100418.25;;;28.41;57.20
8585;BME280;7180;52.742;11.420;2022-08-18T13:18:19;100419.69;;;28.37;57.66
8585;BME280;7180;52.742;11.420;2022-08-18T13:20:44;100429.69;;;28.43;57.90
8585;BME280;7180;52.742;11.420;2022-08-18T13:23:10;100410.56;;;28.38;57.41
8585;BME280;7180;52.742;11.420;2022-08-18T13:25:36;100372.28;;;28.28;56.97
8585;BME280;7180;52.742;11.420;2022-08-18T13:28:03;100360.00;;;28.19;56.63
8585;BME280;7180;52.742;11.420;2022-08-18T13:30:29;100360.84;;;28.00;57.13
8585;BME280;7180;52.742;11.420;2022-08-18T13:32:55;100382.25;;;28.01;57.49
8585;BME280;7180;52.742;11.420;2022-08-18T13:35:21;100447.16;;;28.34;58.12
8585;BME280;7180;52.742;11.420;2022-08-18T13:37:46;100391.63;;;28.25;57.39
8585;BME280;7180;52.742;11.420;2022-08-18T13:40:12;100405.56;;;28.35;58.13
8585;BME280;7180;52.742;11.420;2022-08-18T13:42:43;100378.75;;;28.07;58.36
8585;BME280;7180;52.742;11.420;2022-08-18T13:45:10;100407.63;;;28.13;58.58
8585;BME280;7180;52.742;11.420;2022-08-18T13:47:36;100396.81;;;28.07;58.75
8585;BME280;7180;52.742;11.420;2022-08-18T13:50:02;100434.47;;;28.21;58.72
8585;BME280;7180;52.742;11.420;2022-08-18T13:52:28;100445.09;;;28.36;58.46
8585;BME280;7180;52.742;11.420;2022-08-18T13:54:53;100480.06;;;28.57;59.45
8585;BME280;7180;52.742;11.420;2022-08-18T13:57:19;100483.38;;;28.79;59.59
8585;BME280;7180;52.742;11.420;2022-08-18T13:59:44;100474.44;;;28.85;59.35
8585;BME280;7180;52.742;11.420;2022-08-18T14:02:10;100458.81;;;28.80;58.67
8585;BME280;7180;52.742;11.420;2022-08-18T14:04:36;100459.22;;;28.90;58.45
8585;BME280;7180;52.742;11.420;2022-08-18T14:07:03;100470.25;;;28.95;58.91
8585;BME280;7180;52.742;11.420;2022-08-18T14:09:29;100462.97;;;28.96;58.91
8585;BME280;7180;52.742;11.420;2022-08-18T14:11:56;100480.66;;;28.98;59.28
8585;BME280;7180;52.742;11.420;2022-08-18T14:14:21;100509.16;;;29.20;59.53
8585;BME280;7180;52.742;11.420;2022-08-18T14:16:48;100460.81;;;29.30;57.41
8585;BME280;7180;52.742;11.420;2022-08-18T14:19:13;100469.94;;;29.36;57.50
8585;BME280;7180;52.742;11.420;2022-08-18T14:21:57;100446.59;;;29.41;56.88
8585;BME280;7180;52.742;11.420;2022-08-18T14:24:41;100452.53;;;29.06;58.53
8585;BME280;7180;52.742;11.420;2022-08-18T14:27:34;100512.41;;;29.48;58.75
8585;BME280;7180;52.742;11.420;2022-08-18T14:30:01;100465.41;;;29.30;58.79
8585;BME280;7180;52.742;11.420;2022-08-18T14:32:28;100459.59;;;29.26;58.70
8585;BME280;7180;52.742;11.420;2022-08-18T14:34:58;100487.81;;;29.50;58.81
8585;BME280;7180;52.742;11.420;2022-08-18T14:37:24;100472.03;;;29.34;59.20
8585;BME280;7180;52.742;11.420;2022-08-18T14:39:49;100397.94;;;29.09;58.09
8585;BME280;7180;52.742;11.420;2022-08-18T14:42:16;100420.66;;;29.14;57.96
8585;BME280;7180;52.742;11.420;2022-08-18T14:44:44;100442.94;;;29.16;58.41
8585;BME280;7180;52.742;11.420;2022-08-18T14:47:09;100412.97;;;28.98;59.05
8585;BME280;7180;52.742;11.420;2022-08-18T14:49:34;100479.56;;;29.25;59.45
8585;BME280;7180;52.742;11.420;2022-08-18T14:52:01;100457.09;;;29.05;59.82
8585;BME280;7180;52.742;11.420;2022-08-18T14:54:27;100454.38;;;29.05;60.05
8585;BME280;7180;52.742;11.420;2022-08-18T14:56:52;100439.03;;;28.86;59.59
8585;BME280;7180;52.742;11.420;2022-08-18T14:59:18;100430.09;;;28.79;59.54
8585;BME280;7180;52.742;11.420;2022-08-18T15:01:43;100455.25;;;28.99;60.06
8585;BME280;7180;52.742;11.420;2022-08-18T15:04:09;100452.56;;;28.86;59.96
8585;BME280;7180;52.742;11.420;2022-08-18T15:06:35;100446.34;;;28.66;60.42
8585;BME280;7180;52.742;11.420;2022-08-18T15:09:01;100432.41;;;28.69;59.93
8585;BME280;7180;52.742;11.420;2022-08-18T15:11:26;100442.59;;;28.67;60.31
8585;BME280;7180;52.742;11.420;2022-08-18T15:13:52;100447.81;;;28.55;61.12
8585;BME280;7180;52.742;11.420;2022-08-18T15:16:18;100446.34;;;28.53;60.84
8585;BME280;7180;52.742;11.420;2022-08-18T15:18:45;100426.56;;;28.33;60.72
8585;BME280;7180;52.742;11.420;2022-08-18T15:21:14;100471.69;;;28.45;61.84
8585;BME280;7180;52.742;11.420;2022-08-18T15:23:59;100480.06;;;28.63;61.26
8585;BME280;7180;52.742;11.420;2022-08-18T15:26:43;100440.09;;;28.46;60.97
8585;BME280;7180;52.742;11.420;2022-08-18T15:29:09;100423.84;;;28.33;60.91
8585;BME280;7180;52.742;11.420;2022-08-18T15:31:35;100480.91;;;28.64;61.59
8585;BME280;7180;52.742;11.420;2022-08-18T15:34:01;100413.88;;;28.40;60.79
8585;BME280;7180;52.742;11.420;2022-08-18T15:36:27;100440.09;;;28.39;61.01
8585;BME280;7180;52.742;11.420;2022-08-18T15:38:56;100413.44;;;28.17;61.60
8585;BME280;7180;52.742;11.420;2022-08-18T15:41:29;100436.72;;;28.11;61.48
8585;BME280;7180;52.742;11.420;2022-08-18T15:43:54;100444.63;;;28.00;62.32
8585;BME280;7180;52.742;11.420;2022-08-18T15:46:21;100437.09;;;27.89;62.17
8585;BME280;7180;52.742;11.420;2022-08-18T15:48:46;100449.81;;;27.95;61.82
8585;BME280;7180;52.742;11.420;2022-08-18T15:51:11;100437.47;;;27.79;62.13
8585;BME280;7180;52.742;11.420;2022-08-18T15:53:36;100473.31;;;28.01;61.91
8585;BME280;7180;52.742;11.420;2022-08-18T15:56:02;100448.28;;;27.86;62.14
8585;BME280;7180;52.742;11.420;2022-08-18T15:58:28;100481.44;;;28.01;62.37
8585;BME280;7180;52.742;11.420;2022-08-18T16:00:53;100450.00;;;27.93;61.50
8585;BME280;7180;52.742;11.420;2022-08-18T16:03:18;100443.09;;;27.78;62.15
8585;BME280;7180;52.742;11.420;2022-08-18T16:05:51;100445.38;;;27.81;62.11
8585;BME280;7180;52.742;11.420;2022-08-18T16:08:19;100450.72;;;27.61;63.07
8585;BME280;7180;52.742;11.420;2022-08-18T16:10:45;100457.78;;;27.55;63.40
8585;BME280;7180;52.742;11.420;2022-08-18T16:13:10;100453.00;;;27.57;63.25
8585;BME280;7180;52.742;11.420;2022-08-18T16:15:40;100443.63;;;27.47;62.70
8585;BME280;7180;52.742;11.420;2022-08-18T16:18:07;100443.19;;;27.43;63.35
8585;BME280;7180;52.742;11.420;2022-08-18T16:20:33;100454.16;;;27.35;63.57
8585;BME280;7180;52.742;11.420;2022-08-18T16:23:00;100455.19;;;27.34;64.14
8585;BME280;7180;52.742;11.420;2022-08-18T16:25:26;100454.25;;;27.21;64.98
8585;BME280;7180;52.742;11.420;2022-08-18T16:27:51;100441.38;;;27.16;64.51
8585;BME280;7180;52.742;11.420;2022-08-18T16:30:22;100469.22;;;27.17;65.42
8585;BME280;7180;52.742;11.420;2022-08-18T16:32:48;100457.56;;;27.16;64.35
8585;BME280;7180;52.742;11.420;2022-08-18T16:35:14;100469.03;;;27.25;64.24
8585;BME280;7180;52.742;11.420;2022-08-18T16:37:41;100460.25;;;27.10;65.08
8585;BME280;7180;52.742;11.420;2022-08-18T16:40:07;100452.06;;;26.97;65.20
8585;BME280;7180;52.742;11.420;2022-08-18T16:42:33;100447.78;;;26.81;65.37
8585;BME280;7180;52.742;11.420;2022-08-18T16:44:59;100460.72;;;26.86;65.72
8585;BME280;7180;52.742;11.420;2022-08-18T16:47:24;100453.59;;;26.78;65.95
8585;BME280;7180;52.742;11.420;2022-08-18T16:49:51;100459.69;;;26.65;66.04
8585;BME280;7180;52.742;11.420;2022-08-18T16:52:17;100457.13;;;26.57;66.34
8585;BME280;7180;52.742;11.420;2022-08-18T16:54:44;100457.34;;;26.56;66.27
8585;BME280;7180;52.742;11.420;2022-08-18T16:57:09;100475.41;;;26.55;66.87
8585;BME280;7180;52.742;11.420;2022-08-18T16:59:36;100483.28;;;26.57;67.21
8585;BME280;7180;52.742;11.420;2022-08-18T17:02:19;100476.84;;;26.58;66.96
8585;BME280;7180;52.742;11.420;2022-08-18T17:05:04;100466.59;;;26.47;66.79
8585;BME280;7180;52.742;11.420;2022-08-18T17:07:31;100472.38;;;26.44;67.61
8585;BME280;7180;52.742;11.420;2022-08-18T17:09:57;100483.03;;;26.31;67.90
8585;BME280;7180;52.742;11.420;2022-08-18T17:12:24;100476.00;;;26.30;67.70
8585;BME280;7180;52.742;11.420;2022-08-18T17:14:50;100486.34;;;26.26;68.52
8585;BME280;7180;52.742;11.420;2022-08-18T17:17:15;100476.34;;;26.27;67.80
8585;BME280;7180;52.742;11.420;2022-08-18T17:19:42;100500.06;;;26.31;68.17
8585;BME280;7180;52.742;11.420;2022-08-18T17:22:08;100487.94;;;26.21;68.35
8585;BME280;7180;52.742;11.420;2022-08-18T17:24:33;100502.41;;;26.20;69.01
8585;BME280;7180;52.742;11.420;2022-08-18T17:27:11;100498.63;;;26.14;69.05
8585;BME280;7180;52.742;11.420;2022-08-18T17:29:49;100504.94;;;26.21;68.48
8585;BME280;7180;52.742;11.420;2022-08-18T17:32:25;100499.47;;;26.15;69.10
8585;BME280;7180;52.742;11.420;2022-08-18T17:34:58;100501.91;;;26.10;69.49
8585;BME280;7180;52.742;11.420;2022-08-18T17:37:25;100511.41;;;26.06;69.79
8585;BME280;7180;52.742;11.420;2022-08-18T17:39:56;100523.38;;;26.03;70.11
8585;BME280;7180;52.742;11.420;2022-08-18T17:42:27;100504.16;;;25.92;70.11
8585;BME280;7180;52.742;11.420;2022-08-18T17:44:59;100511.66;;;25.96;70.25
8585;BME280;7180;52.742;11.420;2022-08-18T17:47:35;100527.38;;;25.93;70.35
8585;BME280;7180;52.742;11.420;2022-08-18T17:50:06;100532.13;;;25.91;70.20
8585;BME280;7180;52.742;11.420;2022-08-18T17:53:02;100531.59;;;25.81;70.68
8585;BME280;7180;52.742;11.420;2022-08-18T17:55:36;100535.03;;;25.75;71.31
8585;BME280;7180;52.742;11.420;2022-08-18T17:58:22;100538.09;;;25.72;71.55
8585;BME280;7180;52.742;11.420;2022-08-18T18:00:50;100543.09;;;25.75;71.23
8585;BME280;7180;52.742;11.420;2022-08-18T18:03:16;100547.13;;;25.64;71.60
8585;BME280;7180;52.742;11.420;2022-08-18T18:05:47;100553.81;;;25.68;71.41
8585;BME280;7180;52.742;11.420;2022-08-18T18:08:13;100541.66;;;25.57;71.65
8585;BME280;7180;52.742;11.420;2022-08-18T18:10:47;100553.44;;;25.56;71.57
8585;BME280;7180;52.742;11.420;2022-08-18T18:15:43;100556.13;;;25.42;71.86
8585;BME280;7180;52.742;11.420;2022-08-18T18:20:59;100554.94;;;25.44;71.45
8585;BME280;7180;52.742;11.420;2022-08-18T18:23:37;100546.59;;;25.39;71.51
8585;BME280;7180;52.742;11.420;2022-08-18T18:26:31;100538.09;;;25.28;71.80
8585;BME280;7180;52.742;11.420;2022-08-18T18:29:23;100549.25;;;25.25;72.32
8585;BME280;7180;52.742;11.420;2022-08-18T18:35:01;100535.41;;;25.13;72.22
8585;BME280;7180;52.742;11.420;2022-08-18T18:37:30;100540.44;;;25.16;72.57
8585;BME280;7180;52.742;11.420;2022-08-18T18:40:05;100537.94;;;25.15;72.57
8585;BME280;7180;52.742;11.420;2022-08-18T18:42:33;100544.50;;;25.12;73.03
8585;BME280;7180;52.742;11.420;2022-08-18T18:45:02;100556.38;;;25.18;72.69
8585;BME280;7180;52.742;11.420;2022-08-18T18:56:33;100573.97;;;24.91;75.19
8585;BME280;7180;52.742;11.420;2022-08-18T19:04:56;100580.19;;;24.69;77.26
8585;BME280;7180;52.742;11.420;2022-08-18T19:07:32;100587.97;;;24.64;78.07
8585;BME280;7180;52.742;11.420;2022-08-18T19:10:17;100599.88;;;24.61;77.78
8585;BME280;7180;52.742;11.420;2022-08-18T19:12:51;100602.09;;;24.58;77.68
8585;BME280;7180;52.742;11.420;2022-08-18T19:15:20;100612.38;;;24.54;78.13
8585;BME280;7180;52.742;11.420;2022-08-18T19:17:58;100615.84;;;24.63;77.28
8585;BME280;7180;52.742;11.420;2022-08-18T19:20:31;100621.28;;;24.55;77.24
8585;BME280;7180;52.742;11.420;2022-08-18T19:25:56;100623.34;;;24.45;78.24
8585;BME280;7180;52.742;11.420;2022-08-18T19:28:38;100640.91;;;24.55;77.81
8585;BME280;7180;52.742;11.420;2022-08-18T19:31:16;100629.03;;;24.50;77.45
8585;BME280;7180;52.742;11.420;2022-08-18T19:39:02;100618.22;;;24.58;77.21
8585;BME280;7180;52.742;11.420;2022-08-18T19:41:47;100603.53;;;24.46;77.53
8585;BME280;7180;52.742;11.420;2022-08-18T19:44:45;100601.06;;;24.36;78.22
8585;BME280;7180;52.742;11.420;2022-08-18T19:47:25;100604.66;;;24.29;78.84
8585;BME280;7180;52.742;11.420;2022-08-18T19:58:26;100647.03;;;24.19;78.85
8585;BME280;7180;52.742;11.420;2022-08-18T20:01:13;100645.69;;;24.15;78.97
8585;BME280;7180;52.742;11.420;2022-08-18T20:12:45;100653.88;;;23.75;83.46
8585;BME280;7180;52.742;11.420;2022-08-18T20:15:20;100656.28;;;23.53;85.59
8585;BME280;7180;52.742;11.420;2022-08-18T20:17:59;100665.53;;;23.27;88.30
8585;BME280;7180;52.742;11.420;2022-08-18T20:20:36;100679.59;;;22.97;90.76
8585;BME280;7180;52.742;11.420;2022-08-18T20:23:29;100683.94;;;22.74;92.22
8585;BME280;7180;52.742;11.420;2022-08-18T20:25:55;100701.63;;;22.58;95.59
8585;BME280;7180;52.742;11.420;2022-08-18T20:28:30;100710.78;;;22.48;97.56
8585;BME280;7180;52.742;11.420;2022-08-18T20:31:08;100725.16;;;22.39;99.51
8585;BME280;7180;52.742;11.420;2022-08-18T20:33:39;100726.50;;;22.35;99.77
8585;BME280;7180;52.742;11.420;2022-08-18T20:36:31;100745.84;;;22.21;100.00
8585;BME280;7180;52.742;11.420;2022-08-18T20:41:57;100765.50;;;22.29;100.00
8585;BME280;7180;52.742;11.420;2022-08-18T20:52:54;100767.44;;;22.53;100.00
8585;BME280;7180;52.742;11.420;2022-08-18T20:58:01;100790.03;;;22.50;100.00
8585;BME280;7180;52.742;11.420;2022-08-18T21:00:29;100792.13;;;22.39;100.00
8585;BME280;7180;52.742;11.420;2022-08-18T21:02:58;100803.19;;;22.36;100.00
8585;BME280;7180;52.742;11.420;2022-08-18T21:05:34;100794.97;;;22.37;100.00
8585;BME280;7180;52.742;11.420;2022-08-18T21:08:26;100794.13;;;22.37;100.00
8585;BME280;7180;52.742;11.420;2022-08-18T21:11:03;100782.09;;;22.33;100.00
8585;BME280;7180;52.742;11.420;2022-08-18T21:16:08;100772.78;;;22.11;100.00
8585;BME280;7180;52.742;11.420;2022-08-18T21:18:35;100790.41;;;22.22;100.00
8585;BME280;7180;52.742;11.420;2022-08-18T21:21:03;100778.94;;;22.12;100.00
8585;BME280;7180;52.742;11.420;2022-08-18T21:23:33;100760.19;;;22.12;100.00